Redwood, Mississippi
Current Conditions -  °F | °C
As of 2:35 PM on Wednesday 26 Nov 2014 (Local Time) from KVKS Reporting Station
Clear Clear  
Wind Chill: 68°   Ceiling: Unl
Heat Index: 68°   Visibility: 10mi
Dew Point: 36°   Wind: 18mph
Humidity: 30%   Direction: 230°SW
Pressure: 30.06"   Gusts: 31mph
Location:  32.48°N, 90.8°W
Report Text: KVKS 262035Z AUTO 23016G27KT 10SM CLR 20/02 A3006 RMK A01
Loading
Personal Weather Stations






























Interactive Weather Map New forecast layout! Learn more

10-Day Weather Forecast

Advertisements
Track Severe Weather on mobile